Time;durP1;ratioP1;P1;durP2;ratioP2;P2;SDS_P1;SDS_P2;PMS_P1;PMS_P2;Temp;Humidity;BMP_temperature;BMP_pressure;BME280_temperature;BME280_humidity;BME280_pressure;Samples;Min_cycle;Max_cycle;Signal;HPM_P1;HPM_P2
2021/07/25 00:00:07;;;;;;;9.03;4.60;;;23.80;99.90;;;;;;5041792;28;20190;-78
2021/07/25 00:02:35;;;;;;;11.27;4.50;;;23.70;99.90;;;;;;5045310;28;20180;-78
2021/07/25 00:05:03;;;;;;;8.33;4.40;;;23.70;99.90;;;;;;5024637;28;20229;-78
2021/07/25 00:07:29;;;;;;;7.97;4.60;;;23.60;99.90;;;;;;5051324;28;20274;-78
2021/07/25 00:09:55;;;;;;;9.07;4.50;;;23.60;99.90;;;;;;5046663;28;20661;-77
2021/07/25 00:12:24;;;;;;;8.32;4.55;;;23.50;99.90;;;;;;5041417;28;20195;-78
2021/07/25 00:14:51;;;;;;;8.70;4.20;;;23.50;99.90;;;;;;5057350;28;20192;-78
2021/07/25 00:17:17;;;;;;;6.53;4.43;;;23.50;99.90;;;;;;5060419;28;20235;-78
2021/07/25 00:19:43;;;;;;;6.90;3.97;;;23.50;99.90;;;;;;5055525;28;20192;-77
2021/07/25 00:22:10;;;;;;;9.27;4.47;;;23.50;99.90;;;;;;5050153;28;20187;-77
2021/07/25 00:24:38;;;;;;;9.00;4.23;;;23.40;99.90;;;;;;5044198;28;20690;-78
2021/07/25 00:27:06;;;;;;;9.47;3.97;;;23.40;99.90;;;;;;5030430;28;20188;-77
2021/07/25 00:29:32;;;;;;;8.97;4.63;;;23.40;99.90;;;;;;5051711;28;20351;-76
2021/07/25 00:32:09;;;;;;;7.47;4.20;;;23.40;99.90;;;;;;5044880;28;20193;-77
2021/07/25 00:34:38;;;;;;;7.73;4.67;;;23.40;99.90;;;;;;5045646;28;20321;-77
2021/07/25 00:37:04;;;;;;;7.80;4.53;;;23.40;99.90;;;;;;5045423;28;20264;-79
2021/07/25 00:39:32;;;;;;;18.40;4.73;;;23.40;99.90;;;;;;5062765;28;20183;-79
2021/07/25 00:41:58;;;;;;;17.90;5.00;;;23.30;99.90;;;;;;5029235;28;20192;-75
2021/07/25 00:44:24;;;;;;;16.33;4.43;;;23.20;99.90;;;;;;5035835;28;20268;-75
2021/07/25 00:47:00;;;;;;;17.80;4.70;;;23.20;99.90;;;;;;5045677;28;20226;-78
2021/07/25 00:49:30;;;;;;;12.17;4.40;;;23.20;99.90;;;;;;5040953;28;20196;-75
2021/07/25 00:51:56;;;;;;;8.70;4.30;;;23.20;99.90;;;;;;5051453;28;20640;-78
2021/07/25 00:54:23;;;;;;;12.83;4.47;;;23.20;99.90;;;;;;5043543;28;20282;-76
2021/07/25 00:56:50;;;;;;;11.57;4.13;;;23.20;99.90;;;;;;5063461;28;20203;-75
2021/07/25 00:59:17;;;;;;;10.00;4.43;;;23.30;99.90;;;;;;5032958;28;20210;-76
2021/07/25 01:01:43;;;;;;;11.93;4.70;;;23.30;99.90;;;;;;5046996;28;20179;-75
2021/07/25 01:04:41;;;;;;;6.73;4.43;;;23.30;99.90;;;;;;5045241;28;20184;-75
2021/07/25 01:07:49;;;;;;;9.00;4.57;;;23.30;99.90;;;;;;5039401;28;20210;-76
2021/07/25 01:10:30;;;;;;;9.73;4.37;;;23.40;99.90;;;;;;5043880;28;20188;-76
2021/07/25 01:13:07;;;;;;;9.77;4.37;;;23.40;99.90;;;;;;5029268;28;20196;-76
2021/07/25 01:15:34;;;;;;;5.03;4.07;;;23.40;99.90;;;;;;5045781;28;20244;-75
2021/07/25 01:18:01;;;;;;;7.77;3.90;;;23.40;99.90;;;;;;5045199;28;20750;-75
2021/07/25 01:20:28;;;;;;;7.60;4.43;;;23.40;99.90;;;;;;5030015;28;20262;-76
2021/07/25 01:22:57;;;;;;;9.57;4.60;;;23.40;99.90;;;;;;5045078;28;20183;-75
2021/07/25 01:25:26;;;;;;;8.23;4.13;;;23.40;99.90;;;;;;5030433;28;20196;-75
2021/07/25 01:28:23;;;;;;;12.80;4.63;;;23.40;99.90;;;;;;5027372;28;20199;-76
2021/07/25 01:30:57;;;;;;;11.27;5.27;;;23.40;99.90;;;;;;5047807;28;20195;-75
2021/07/25 01:33:31;;;;;;;5.80;3.90;;;23.40;99.90;;;;;;5062843;28;20277;-76
2021/07/25 01:35:59;;;;;;;6.73;3.73;;;23.40;99.90;;;;;;5047507;28;20182;-75
2021/07/25 01:38:27;;;;;;;7.03;4.23;;;23.40;99.90;;;;;;5037508;28;20274;-75
2021/07/25 01:41:09;;;;;;;9.80;4.07;;;23.40;99.90;;;;;;5032787;28;20187;-75
2021/07/25 01:43:50;;;;;;;12.77;3.90;;;23.40;99.90;;;;;;5028223;28;20198;-75
2021/07/25 01:46:17;;;;;;;10.53;3.90;;;23.40;99.90;;;;;;5042051;28;20215;-75
2021/07/25 01:48:44;;;;;;;6.47;3.60;;;23.40;99.90;;;;;;5062987;28;20187;-75
2021/07/25 01:51:15;;;;;;;7.97;4.00;;;23.40;99.90;;;;;;5046486;28;20206;-77
2021/07/25 01:53:42;;;;;;;5.10;4.20;;;23.40;99.90;;;;;;5058579;28;20608;-75
2021/07/25 01:56:12;;;;;;;6.00;3.87;;;23.40;99.90;;;;;;5039602;28;20220;-77
2021/07/25 01:58:39;;;;;;;9.67;4.20;;;23.40;99.90;;;;;;5045107;28;20180;-75
2021/07/25 02:01:06;;;;;;;7.90;3.93;;;23.40;99.90;;;;;;5058632;28;20188;-76
2021/07/25 02:03:35;;;;;;;5.67;3.50;;;23.40;99.90;;;;;;5023373;28;20191;-77
2021/07/25 02:06:04;;;;;;;5.00;3.63;;;23.40;99.90;;;;;;5045323;28;20512;-78
2021/07/25 02:08:30;;;;;;;8.93;4.53;;;23.40;99.90;;;;;;5041848;28;20285;-77
2021/07/25 02:10:56;;;;;;;8.37;4.30;;;23.40;99.90;;;;;;5026455;28;20187;-77
2021/07/25 02:13:24;;;;;;;9.73;4.00;;;23.40;99.90;;;;;;5045313;28;20355;-77
2021/07/25 02:15:51;;;;;;;8.93;3.77;;;23.40;99.90;;;;;;5041849;28;20218;-77
2021/07/25 02:18:18;;;;;;;7.17;3.77;;;23.40;99.90;;;;;;5029899;28;20617;-77
2021/07/25 02:20:45;;;;;;;9.50;4.03;;;23.40;99.90;;;;;;5029205;28;20244;-78
2021/07/25 02:23:11;;;;;;;7.63;4.40;;;23.50;99.90;;;;;;5060988;28;20191;-78
2021/07/25 02:25:38;;;;;;;9.83;4.53;;;23.50;99.90;;;;;;5043511;28;20180;-76
2021/07/25 02:28:06;;;;;;;7.70;4.93;;;23.50;99.90;;;;;;5028282;28;20226;-78
2021/07/25 02:30:32;;;;;;;9.43;4.97;;;23.50;99.90;;;;;;5040469;28;20211;-77
2021/07/25 02:32:59;;;;;;;9.87;4.97;;;23.50;99.90;;;;;;5044806;28;20970;-77
2021/07/25 02:35:25;;;;;;;8.03;5.13;;;23.60;99.90;;;;;;5044980;28;20280;-76
2021/07/25 02:37:51;;;;;;;11.30;5.83;;;23.50;99.90;;;;;;5045461;28;20211;-77
2021/07/25 02:40:21;;;;;;;9.90;5.93;;;23.60;99.90;;;;;;5019770;28;20814;-76
2021/07/25 02:42:47;;;;;;;9.13;5.30;;;23.60;99.90;;;;;;5046728;28;20249;-76
2021/07/25 02:45:13;;;;;;;11.13;5.50;;;23.60;99.90;;;;;;5042260;28;20183;-76
2021/07/25 02:47:40;;;;;;;10.80;5.60;;;23.50;99.90;;;;;;5025974;28;20793;-78
2021/07/25 02:50:07;;;;;;;8.00;5.43;;;23.60;99.90;;;;;;5027811;28;20188;-76
2021/07/25 02:52:33;;;;;;;10.33;5.60;;;23.60;99.90;;;;;;5029446;28;20265;-77
2021/07/25 02:55:00;;;;;;;11.77;5.55;;;23.60;99.90;;;;;;5026676;28;20191;-77
2021/07/25 02:57:27;;;;;;;7.57;4.93;;;23.60;99.90;;;;;;5031058;28;20302;-78
2021/07/25 02:59:53;;;;;;;8.25;5.07;;;23.50;99.90;;;;;;5044436;28;20191;-77
2021/07/25 03:02:23;;;;;;;10.23;5.20;;;23.50;99.90;;;;;;5044045;28;20179;-77
2021/07/25 03:04:50;;;;;;;15.07;5.57;;;23.60;99.90;;;;;;5059430;28;20180;-78
2021/07/25 03:07:17;;;;;;;16.33;6.17;;;23.50;99.90;;;;;;5044809;28;20196;-77
2021/07/25 03:09:43;;;;;;;7.63;5.70;;;23.60;99.90;;;;;;5054689;28;20202;-77
2021/07/25 03:12:09;;;;;;;8.20;5.57;;;23.60;99.90;;;;;;5032433;28;20192;-77
2021/07/25 03:14:36;;;;;;;11.60;6.13;;;23.60;99.90;;;;;;5044431;28;21018;-77
2021/07/25 03:17:02;;;;;;;8.13;6.10;;;23.60;99.90;;;;;;5025370;28;20317;-74
2021/07/25 03:19:28;;;;;;;9.30;5.90;;;23.70;99.90;;;;;;5028713;28;20194;-76
2021/07/25 03:21:55;;;;;;;11.90;5.80;;;23.70;99.90;;;;;;5047336;28;20202;-75
2021/07/25 03:24:21;;;;;;;10.80;5.78;;;23.70;99.90;;;;;;5031169;28;20218;-76
2021/07/25 03:26:49;;;;;;;7.33;5.67;;;23.70;99.90;;;;;;5043094;28;20192;-75
2021/07/25 03:29:15;;;;;;;12.25;6.00;;;23.80;99.90;;;;;;5059801;28;20564;-75
2021/07/25 03:31:43;;;;;;;14.07;5.73;;;23.80;99.90;;;;;;5059959;28;20627;-75
2021/07/25 03:34:09;;;;;;;10.20;5.10;;;23.80;99.90;;;;;;5023253;28;20192;-75
2021/07/25 03:36:35;;;;;;;11.48;5.47;;;23.80;99.90;;;;;;5021542;28;20234;-78
2021/07/25 03:39:01;;;;;;;9.20;5.47;;;23.90;99.90;;;;;;5049454;28;20179;-77
2021/07/25 03:41:29;;;;;;;9.60;5.50;;;23.90;99.90;;;;;;5043199;28;20754;-76
2021/07/25 03:43:55;;;;;;;10.85;5.18;;;24.00;99.90;;;;;;5042133;28;20222;-74
2021/07/25 03:46:21;;;;;;;11.60;5.68;;;24.00;99.90;;;;;;5032460;28;20238;-74
2021/07/25 03:48:48;;;;;;;9.07;5.18;;;24.00;99.90;;;;;;5045421;28;20653;-74
2021/07/25 03:51:14;;;;;;;13.30;5.53;;;24.00;99.90;;;;;;5045110;28;20179;-74
2021/07/25 03:53:40;;;;;;;8.82;5.45;;;24.00;99.90;;;;;;5065130;28;20286;-74
2021/07/25 03:56:07;;;;;;;10.63;5.30;;;24.00;99.90;;;;;;5046593;28;20187;-76
2021/07/25 03:58:33;;;;;;;11.80;5.70;;;24.10;99.90;;;;;;5045594;28;20195;-76
2021/07/25 04:00:59;;;;;;;11.38;5.80;;;24.10;99.90;;;;;;5050198;28;20188;-75
2021/07/25 04:03:25;;;;;;;12.23;5.82;;;24.10;99.90;;;;;;5047182;28;20804;-75
2021/07/25 04:05:52;;;;;;;16.23;6.20;;;24.10;99.90;;;;;;5025500;28;20184;-76
2021/07/25 04:08:18;;;;;;;12.30;6.13;;;24.10;99.90;;;;;;5031394;28;20183;-76
2021/07/25 04:10:45;;;;;;;13.98;5.97;;;24.20;99.90;;;;;;5028999;28;20183;-75
2021/07/25 04:13:12;;;;;;;11.50;6.05;;;24.20;99.90;;;;;;5039032;28;20497;-75
2021/07/25 04:15:45;;;;;;;9.38;6.10;;;24.20;99.90;;;;;;5028152;28;20184;-76
2021/07/25 04:18:11;;;;;;;11.63;6.10;;;24.20;99.90;;;;;;5027852;28;20216;-77
2021/07/25 04:20:38;;;;;;;10.75;6.00;;;24.30;99.90;;;;;;5067408;28;20214;-75
2021/07/25 04:23:04;;;;;;;8.20;5.85;;;24.20;99.90;;;;;;5045862;28;20210;-76
2021/07/25 04:25:32;;;;;;;8.50;5.82;;;24.30;99.90;;;;;;5046282;28;20612;-75
2021/07/25 04:28:00;;;;;;;10.80;6.13;;;24.30;99.90;;;;;;5046028;28;20223;-76
2021/07/25 04:30:29;;;;;;;9.60;6.10;;;24.30;99.90;;;;;;5038053;28;20192;-76
2021/07/25 04:32:57;;;;;;;7.13;5.95;;;24.30;99.90;;;;;;5034182;28;20179;-75
2021/07/25 04:35:25;;;;;;;10.05;5.55;;;24.40;99.90;;;;;;5049083;28;20188;-74
2021/07/25 04:37:55;;;;;;;9.50;5.78;;;24.50;99.90;;;;;;5047368;28;20213;-76
2021/07/25 04:40:26;;;;;;;10.80;5.85;;;24.50;99.90;;;;;;5043005;28;20183;-75
2021/07/25 04:42:58;;;;;;;11.95;5.93;;;24.50;99.90;;;;;;5043187;28;20191;-76
2021/07/25 04:46:02;;;;;;;10.15;5.55;;;24.50;99.90;;;;;;5039957;28;20269;-75
2021/07/25 04:48:53;;;;;;;16.23;6.53;;;24.60;99.90;;;;;;5043280;28;20202;-75
2021/07/25 04:51:23;;;;;;;8.90;5.63;;;24.70;99.90;;;;;;5029346;28;21309;-74
2021/07/25 04:53:53;;;;;;;9.50;5.90;;;24.70;99.90;;;;;;5049031;28;20663;-74
2021/07/25 04:56:20;;;;;;;7.80;5.35;;;24.70;99.90;;;;;;5047782;28;20218;-76
2021/07/25 04:59:05;;;;;;;12.23;6.30;;;24.70;99.90;;;;;;5047923;28;20195;-74
2021/07/25 05:01:36;;;;;;;11.02;6.18;;;24.80;99.90;;;;;;5046497;28;20199;-75
2021/07/25 05:04:06;;;;;;;12.13;5.38;;;25.00;99.90;;;;;;5029280;28;20187;-76
2021/07/25 05:06:33;;;;;;;10.43;5.57;;;25.20;99.90;;;;;;5027767;28;20252;-75
2021/07/25 05:09:00;;;;;;;10.63;5.80;;;25.30;99.90;;;;;;5028490;28;20188;-74
2021/07/25 05:12:12;;;;;;;204.43;11.80;;;25.20;99.90;;;;;;5049112;28;20188;-74
2021/07/25 05:15:04;;;;;;;8.75;5.20;;;25.10;99.90;;;;;;5027633;28;20235;-74
2021/07/25 05:17:51;;;;;;;9.73;6.05;;;25.10;99.90;;;;;;5041322;28;20227;-75
2021/07/25 05:20:18;;;;;;;13.38;5.60;;;25.10;99.90;;;;;;5060168;28;20529;-76
2021/07/25 05:23:02;;;;;;;7.97;5.88;;;25.20;99.90;;;;;;5049636;28;20230;-75
2021/07/25 05:25:31;;;;;;;11.13;5.20;;;25.20;99.90;;;;;;5046582;28;20541;-75
2021/07/25 05:28:06;;;;;;;60.33;7.18;;;25.30;99.90;;;;;;5042924;28;20723;-74
2021/07/25 05:30:39;;;;;;;12.18;5.68;;;25.40;99.90;;;;;;5021304;28;20256;-75
2021/07/25 05:33:07;;;;;;;12.07;5.53;;;25.60;99.90;;;;;;5044265;28;20182;-75
2021/07/25 05:35:34;;;;;;;11.13;5.28;;;25.60;99.90;;;;;;5028630;28;20695;-75
2021/07/25 05:38:00;;;;;;;10.32;5.15;;;25.60;99.90;;;;;;5046794;28;20223;-75
2021/07/25 05:40:27;;;;;;;15.73;5.32;;;25.60;99.90;;;;;;5046873;28;20229;-74
2021/07/25 05:42:53;;;;;;;10.73;5.30;;;25.60;99.90;;;;;;5047664;28;21042;-76
2021/07/25 05:45:19;;;;;;;12.25;5.60;;;25.60;99.90;;;;;;5039924;28;20184;-75
2021/07/25 05:47:45;;;;;;;19.02;5.60;;;25.60;99.90;;;;;;5040353;28;20315;-76
2021/07/25 05:50:12;;;;;;;11.98;5.55;;;25.70;99.90;;;;;;5042479;28;20277;-74
2021/07/25 05:52:47;;;;;;;16.48;6.18;;;25.80;99.90;;;;;;5043046;28;20195;-75
2021/07/25 05:55:18;;;;;;;16.58;6.30;;;26.00;99.90;;;;;;5024153;28;20221;-75
2021/07/25 05:57:45;;;;;;;13.05;6.18;;;26.10;99.90;;;;;;5059565;28;20214;-76
2021/07/25 06:00:13;;;;;;;14.88;6.10;;;26.20;99.90;;;;;;5041694;28;20271;-75
2021/07/25 06:03:03;;;;;;;15.98;5.85;;;26.20;99.90;;;;;;5044685;28;20214;-75
2021/07/25 06:05:33;;;;;;;11.23;6.22;;;26.20;99.90;;;;;;5059078;28;20183;-75
2021/07/25 06:08:02;;;;;;;14.35;6.47;;;26.30;99.90;;;;;;5023245;28;20219;-75
2021/07/25 06:10:31;;;;;;;14.10;6.32;;;26.50;99.90;;;;;;5039242;28;20735;-75
2021/07/25 06:13:03;;;;;;;15.45;6.28;;;26.60;99.90;;;;;;5047701;28;21043;-75
2021/07/25 06:15:33;;;;;;;14.13;6.53;;;26.60;99.90;;;;;;5034182;28;20232;-75
2021/07/25 06:18:03;;;;;;;12.68;6.43;;;26.60;99.90;;;;;;5040419;28;20298;-75
2021/07/25 06:20:30;;;;;;;13.95;6.50;;;26.60;99.90;;;;;;5051839;28;20221;-75
2021/07/25 06:22:58;;;;;;;13.80;6.38;;;26.70;99.90;;;;;;5044763;28;20218;-76
2021/07/25 06:25:28;;;;;;;15.52;6.70;;;26.70;99.90;;;;;;5060128;28;20179;-74
2021/07/25 06:28:00;;;;;;;13.40;6.35;;;26.70;99.90;;;;;;5041248;28;20183;-76
2021/07/25 06:30:28;;;;;;;10.35;5.70;;;26.70;99.90;;;;;;5029379;28;20207;-75
2021/07/25 06:33:08;;;;;;;10.73;6.00;;;26.80;99.90;;;;;;5045543;28;20275;-76
2021/07/25 06:35:39;;;;;;;10.27;5.85;;;26.80;99.90;;;;;;5044753;28;20191;-76
2021/07/25 06:38:09;;;;;;;14.75;6.53;;;26.80;99.90;;;;;;5042261;28;20213;-76
2021/07/25 06:40:40;;;;;;;16.63;6.45;;;26.90;99.90;;;;;;5029603;28;20194;-76
2021/07/25 06:43:07;;;;;;;12.25;6.75;;;26.90;99.90;;;;;;5026922;28;20192;-75
2021/07/25 06:45:34;;;;;;;17.48;7.00;;;27.00;99.90;;;;;;5024345;28;20203;-76
2021/07/25 06:48:01;;;;;;;10.90;6.72;;;27.10;99.90;;;;;;5036262;28;20245;-75
2021/07/25 06:50:31;;;;;;;14.63;6.97;;;27.20;99.90;;;;;;5045076;28;20209;-75
2021/07/25 06:52:59;;;;;;;11.75;6.57;;;27.30;99.90;;;;;;5037926;28;20263;-76
2021/07/25 06:55:30;;;;;;;8.75;6.15;;;27.30;99.90;;;;;;5022236;28;20189;-75
2021/07/25 06:57:57;;;;;;;15.55;6.78;;;27.40;99.90;;;;;;5049014;28;20211;-76
2021/07/25 07:00:23;;;;;;;12.70;6.65;;;27.50;99.90;;;;;;5026740;28;20180;-76
2021/07/25 07:02:55;;;;;;;16.05;6.30;;;27.60;99.90;;;;;;5027605;28;20241;-75
2021/07/25 07:05:30;;;;;;;15.60;6.95;;;27.60;99.90;;;;;;5021182;28;20582;-76
2021/07/25 07:08:04;;;;;;;11.65;7.18;;;27.70;99.90;;;;;;5058284;28;20675;-77
2021/07/25 07:10:37;;;;;;;12.82;6.20;;;27.80;99.90;;;;;;5026090;28;20218;-76
2021/07/25 07:13:08;;;;;;;14.02;6.65;;;27.80;99.90;;;;;;5029123;28;20187;-76
2021/07/25 07:15:38;;;;;;;14.60;6.38;;;27.90;99.90;;;;;;5039276;28;20195;-75
2021/07/25 07:18:05;;;;;;;9.48;6.25;;;28.00;99.90;;;;;;5039195;28;20211;-76
2021/07/25 07:20:32;;;;;;;12.00;6.07;;;28.10;99.90;;;;;;5020138;28;20184;-75
2021/07/25 07:23:10;;;;;;;15.23;6.63;;;28.10;99.90;;;;;;5041969;28;20192;-75
2021/07/25 07:25:49;;;;;;;17.15;6.75;;;28.10;99.90;;;;;;5046989;28;20179;-76
2021/07/25 07:28:18;;;;;;;10.98;6.35;;;28.10;99.90;;;;;;5025576;28;20186;-76
2021/07/25 07:30:48;;;;;;;13.88;6.18;;;28.20;99.90;;;;;;5059069;28;20188;-76
2021/07/25 07:33:21;;;;;;;13.75;6.35;;;28.20;99.90;;;;;;5038032;28;20242;-76
2021/07/25 07:35:47;;;;;;;11.57;6.32;;;28.30;99.90;;;;;;5029637;28;20840;-76
2021/07/25 07:38:15;;;;;;;13.20;6.68;;;28.30;99.90;;;;;;5031459;28;20206;-78
2021/07/25 07:40:45;;;;;;;16.25;6.57;;;28.20;99.90;;;;;;5025070;28;20194;-77
2021/07/25 07:43:14;;;;;;;10.50;6.15;;;28.30;99.90;;;;;;5037081;28;20184;-77
2021/07/25 07:45:42;;;;;;;10.50;5.78;;;28.20;99.90;;;;;;5045258;28;20564;-76
2021/07/25 07:48:10;;;;;;;12.05;6.50;;;28.30;99.90;;;;;;5024653;28;20190;-77
2021/07/25 07:50:36;;;;;;;12.18;5.90;;;28.40;99.90;;;;;;5027298;28;20211;-77
2021/07/25 07:53:03;;;;;;;23.23;6.53;;;28.50;99.90;;;;;;5021113;28;20191;-77
2021/07/25 07:55:29;;;;;;;14.43;6.82;;;28.50;99.90;;;;;;5045973;28;20226;-77
2021/07/25 07:57:56;;;;;;;13.23;6.70;;;28.40;99.90;;;;;;5042809;28;20219;-77
2021/07/25 08:00:22;;;;;;;17.80;6.50;;;28.50;99.90;;;;;;5052719;28;20184;-77
2021/07/25 08:02:50;;;;;;;15.52;6.80;;;28.50;99.90;;;;;;5046264;28;20689;-77
2021/07/25 08:05:18;;;;;;;10.60;6.47;;;28.60;99.90;;;;;;5028829;28;20274;-75
2021/07/25 08:07:53;;;;;;;14.57;7.05;;;28.70;99.90;;;;;;5043625;28;20633;-77
2021/07/25 08:10:20;;;;;;;11.35;6.35;;;28.70;99.90;;;;;;5061817;28;20186;-77
2021/07/25 08:12:46;;;;;;;16.10;7.15;;;28.80;99.90;;;;;;5045364;28;20183;-77
2021/07/25 08:15:15;;;;;;;13.35;7.18;;;28.80;99.90;;;;;;5043814;28;20270;-77
2021/07/25 08:17:41;;;;;;;11.27;6.75;;;28.80;99.90;;;;;;5026817;28;20204;-76
2021/07/25 08:20:08;;;;;;;15.85;6.63;;;28.70;99.90;;;;;;5036380;28;20225;-76
2021/07/25 08:22:35;;;;;;;23.10;7.72;;;28.90;99.90;;;;;;5060688;28;20185;-77
2021/07/25 08:25:02;;;;;;;14.10;7.30;;;28.90;99.90;;;;;;5040776;28;20184;-77
2021/07/25 08:27:28;;;;;;;12.80;7.63;;;28.90;99.90;;;;;;5030603;28;20187;-78
2021/07/25 08:29:57;;;;;;;15.63;7.25;;;29.10;99.90;;;;;;5030704;28;20176;-77
2021/07/25 08:32:23;;;;;;;14.63;7.20;;;29.10;99.90;;;;;;5046632;28;20571;-77
2021/07/25 08:34:55;;;;;;;16.83;7.38;;;29.20;99.90;;;;;;5030804;28;20202;-77
2021/07/25 08:37:22;;;;;;;13.00;6.63;;;29.20;99.90;;;;;;5032293;28;20294;-79
2021/07/25 08:39:49;;;;;;;14.57;7.57;;;29.20;99.90;;;;;;5066573;28;20252;-78
2021/07/25 08:42:17;;;;;;;21.00;7.70;;;29.30;99.90;;;;;;5025773;28;20331;-77
2021/07/25 08:44:53;;;;;;;12.65;7.07;;;29.30;99.90;;;;;;5028188;28;20180;-77
2021/07/25 08:47:26;;;;;;;12.93;6.88;;;29.50;99.90;;;;;;5025762;28;20306;-77
2021/07/25 08:50:12;;;;;;;14.43;7.57;;;29.50;99.90;;;;;;5025778;28;20187;-77
2021/07/25 08:52:45;;;;;;;16.60;6.95;;;29.60;99.90;;;;;;5052517;28;20588;-77
2021/07/25 08:55:18;;;;;;;16.83;7.13;;;29.50;99.90;;;;;;5046319;28;20198;-77
2021/07/25 08:57:50;;;;;;;12.85;7.05;;;29.60;99.90;;;;;;5057658;28;20212;-77
2021/07/25 09:00:25;;;;;;;11.52;6.75;;;29.70;99.90;;;;;;5028028;28;20259;-77
2021/07/25 09:02:52;;;;;;;18.27;7.38;;;29.70;99.90;;;;;;5048249;28;20190;-77
2021/07/25 09:05:20;;;;;;;15.00;7.45;;;29.70;99.90;;;;;;5030848;28;20241;-77
2021/07/25 09:07:52;;;;;;;10.48;6.90;;;29.80;99.90;;;;;;5064690;28;20679;-77
2021/07/25 09:10:22;;;;;;;17.40;8.10;;;29.80;99.90;;;;;;5043988;28;20553;-77
2021/07/25 09:12:52;;;;;;;12.18;7.18;;;29.90;99.90;;;;;;5062072;28;20184;-76
2021/07/25 09:15:26;;;;;;;16.58;7.55;;;29.90;99.90;;;;;;5062567;28;20680;-77
2021/07/25 09:17:55;;;;;;;10.70;6.70;;;29.90;99.90;;;;;;5045931;28;20696;-78
2021/07/25 09:20:27;;;;;;;17.85;7.93;;;30.00;99.90;;;;;;5028673;28;20179;-77
2021/07/25 09:23:09;;;;;;;20.45;7.07;;;30.10;99.90;;;;;;5022601;28;20184;-78
2021/07/25 09:25:44;;;;;;;11.15;6.75;;;30.10;99.90;;;;;;5044010;28;20249;-79
2021/07/25 09:28:19;;;;;;;16.80;6.78;;;30.10;99.90;;;;;;5043529;28;21028;-79
2021/07/25 09:30:46;;;;;;;8.93;6.85;;;30.20;99.90;;;;;;5047343;28;20282;-78
2021/07/25 09:33:29;;;;;;;14.13;7.38;;;30.10;99.90;;;;;;5060017;28;20199;-77
2021/07/25 09:36:19;;;;;;;14.68;7.25;;;30.20;99.90;;;;;;5033494;28;20616;-78
2021/07/25 09:38:49;;;;;;;15.98;6.97;;;30.20;99.90;;;;;;5065161;28;20195;-79
2021/07/25 09:41:22;;;;;;;14.85;6.97;;;30.30;99.90;;;;;;5031612;28;20322;-79
2021/07/25 09:44:08;;;;;;;11.63;6.82;;;30.30;99.90;;;;;;5048350;28;20645;-79
2021/07/25 09:46:49;;;;;;;16.42;6.75;;;30.40;99.90;;;;;;5028685;28;20294;-78
2021/07/25 09:49:18;;;;;;;17.30;7.10;;;30.40;99.90;;;;;;5044955;28;20491;-78
2021/07/25 09:51:46;;;;;;;15.85;6.85;;;30.50;99.90;;;;;;5059936;28;20192;-77
2021/07/25 09:54:14;;;;;;;21.00;7.10;;;30.70;99.90;;;;;;5025432;28;20184;-79
2021/07/25 09:56:42;;;;;;;12.32;7.13;;;30.60;99.90;;;;;;5047146;28;20294;-76
2021/07/25 09:59:26;;;;;;;12.32;6.72;;;30.70;99.90;;;;;;5050329;28;20624;-75
2021/07/25 10:01:53;;;;;;;15.60;6.90;;;30.70;99.90;;;;;;5047717;28;20195;-76
2021/07/25 10:04:23;;;;;;;13.13;6.32;;;30.70;99.90;;;;;;5045835;28;20175;-75
2021/07/25 10:06:54;;;;;;;13.65;6.93;;;30.70;99.90;;;;;;5059156;28;20283;-75
2021/07/25 10:09:28;;;;;;;10.35;6.25;;;30.70;99.90;;;;;;5045880;28;20290;-75
2021/07/25 10:12:01;;;;;;;21.13;7.18;;;30.90;99.90;;;;;;5027722;28;20695;-75
2021/07/25 10:14:31;;;;;;;15.02;6.90;;;30.80;99.90;;;;;;5027749;28;20283;-77
2021/07/25 10:17:02;;;;;;;16.42;7.20;;;31.00;99.90;;;;;;5030607;28;20203;-76
2021/07/25 10:19:42;;;;;;;14.82;6.72;;;31.10;99.90;;;;;;5058243;28;20600;-76
2021/07/25 10:22:12;;;;;;;14.38;6.90;;;31.20;99.90;;;;;;5054638;28;20359;-77
2021/07/25 10:24:52;;;;;;;16.35;6.72;;;31.30;99.90;;;;;;5022734;28;20198;-77
2021/07/25 10:27:19;;;;;;;13.07;6.20;;;31.80;99.90;;;;;;5027528;28;20191;-75
2021/07/25 10:29:56;;;;;;;14.93;6.65;;;33.10;99.90;;;;;;5045226;28;20609;-77
2021/07/25 10:32:23;;;;;;;12.10;6.88;;;33.60;99.90;;;;;;5047337;28;20198;-76
2021/07/25 10:34:50;;;;;;;16.10;6.85;;;33.60;99.90;;;;;;5027607;28;20193;-77
2021/07/25 10:37:17;;;;;;;11.20;5.90;;;33.10;99.90;;;;;;5031310;28;20226;-77
2021/07/25 10:39:51;;;;;;;15.75;6.22;;;32.60;99.90;;;;;;5045458;28;20670;-76
2021/07/25 10:42:23;;;;;;;12.43;6.10;;;32.20;99.90;;;;;;5029124;28;20195;-76
2021/07/25 10:44:51;;;;;;;16.80;6.03;;;32.10;99.90;;;;;;5047277;28;20194;-77
2021/07/25 10:47:26;;;;;;;13.93;6.10;;;32.10;99.90;;;;;;5041798;28;20314;-76
2021/07/25 10:50:19;;;;;;;13.43;6.05;;;32.00;99.90;;;;;;5030550;28;20202;-77
2021/07/25 10:53:00;;;;;;;13.13;6.10;;;31.90;99.90;;;;;;5045765;28;20191;-77
2021/07/25 10:55:42;;;;;;;16.88;7.07;;;31.80;99.90;;;;;;5035790;28;20218;-76
2021/07/25 10:58:16;;;;;;;14.65;6.50;;;31.70;99.90;;;;;;5058993;28;20882;-77
2021/07/25 11:00:55;;;;;;;14.35;6.13;;;31.50;99.90;;;;;;5043128;28;20187;-76
2021/07/25 11:03:30;;;;;;;10.07;6.28;;;31.50;99.90;;;;;;5039634;28;20256;-76
2021/07/25 11:06:13;;;;;;;11.45;6.07;;;31.50;99.90;;;;;;5046503;28;20188;-77
2021/07/25 11:08:50;;;;;;;15.00;6.30;;;31.60;99.90;;;;;;5028352;28;20197;-76
2021/07/25 11:11:34;;;;;;;21.90;6.68;;;31.60;99.90;;;;;;5024710;28;20225;-77
2021/07/25 11:14:07;;;;;;;10.10;6.15;;;31.50;99.90;;;;;;5029589;28;20179;-76
2021/07/25 11:16:34;;;;;;;11.40;6.60;;;31.50;99.90;;;;;;5028549;28;20219;-76
2021/07/25 11:19:13;;;;;;;12.55;6.03;;;31.40;99.90;;;;;;5027593;28;20544;-76
2021/07/25 11:21:43;;;;;;;13.25;6.40;;;31.50;99.90;;;;;;5030056;28;20244;-76
2021/07/25 11:24:28;;;;;;;11.75;5.80;;;31.50;99.90;;;;;;5026840;28;20186;-77
2021/07/25 11:27:08;;;;;;;11.90;6.72;;;31.40;99.90;;;;;;5026870;28;20682;-76
2021/07/25 11:29:35;;;;;;;9.95;5.82;;;31.40;99.90;;;;;;5026823;28;20271;-76
2021/07/25 11:32:26;;;;;;;10.20;6.30;;;31.40;99.90;;;;;;5023466;28;20184;-76
2021/07/25 11:35:04;;;;;;;18.80;6.28;;;31.50;99.90;;;;;;5026652;28;20196;-77
2021/07/25 11:37:42;;;;;;;10.70;6.03;;;31.50;99.90;;;;;;5036023;28;20213;-77
2021/07/25 11:40:10;;;;;;;10.63;5.25;;;31.50;99.90;;;;;;5042164;28;20183;-76
2021/07/25 11:42:38;;;;;;;14.27;6.00;;;31.50;99.90;;;;;;5025015;28;21532;-76
2021/07/25 11:45:10;;;;;;;11.70;5.85;;;31.60;99.90;;;;;;5028566;28;20866;-76
2021/07/25 11:47:36;;;;;;;10.15;5.80;;;31.60;99.90;;;;;;5030336;28;20187;-77
2021/07/25 11:50:04;;;;;;;14.25;5.80;;;31.60;99.90;;;;;;5038334;28;20196;-77
2021/07/25 11:52:31;;;;;;;16.50;5.95;;;31.60;99.90;;;;;;5029430;28;20656;-77
2021/07/25 11:54:57;;;;;;;10.50;5.70;;;31.60;99.90;;;;;;5046987;28;20183;-76
2021/07/25 11:57:25;;;;;;;12.05;6.53;;;31.70;99.90;;;;;;5051353;28;20230;-77
2021/07/25 11:59:59;;;;;;;10.73;5.30;;;31.60;99.90;;;;;;5044351;28;20176;-76
2021/07/25 12:02:34;;;;;;;13.35;6.00;;;31.50;99.90;;;;;;5034588;28;20178;-77
2021/07/25 12:05:01;;;;;;;10.63;6.03;;;31.60;99.90;;;;;;5028894;28;20180;-76
2021/07/25 12:07:36;;;;;;;12.90;6.25;;;31.60;99.90;;;;;;5043890;28;20549;-77
2021/07/25 12:10:05;;;;;;;15.48;5.45;;;31.60;99.90;;;;;;5044074;28;20227;-76
2021/07/25 12:12:36;;;;;;;7.32;5.30;;;31.80;99.90;;;;;;5032081;28;20184;-77
2021/07/25 12:15:10;;;;;;;16.50;5.97;;;31.60;99.90;;;;;;5062852;28;20671;-76
2021/07/25 12:17:49;;;;;;;10.93;5.88;;;31.60;99.90;;;;;;5031860;28;20676;-76
2021/07/25 12:20:33;;;;;;;13.88;6.43;;;31.70;99.90;;;;;;5030145;28;20176;-77
2021/07/25 12:23:04;;;;;;;8.85;5.70;;;31.60;99.90;;;;;;5049324;28;20215;-76
2021/07/25 12:25:52;;;;;;;15.43;5.90;;;31.60;99.90;;;;;;5026649;28;20187;-76
2021/07/25 12:28:24;;;;;;;8.43;5.90;;;31.70;99.90;;;;;;5043064;28;20179;-77
2021/07/25 12:30:57;;;;;;;10.70;5.45;;;31.70;99.90;;;;;;5022510;28;20191;-76
2021/07/25 12:33:33;;;;;;;17.92;5.70;;;31.80;99.90;;;;;;5032051;28;20211;-77
2021/07/25 12:36:13;;;;;;;12.68;5.53;;;31.80;99.90;;;;;;5023300;28;20600;-76
2021/07/25 12:38:39;;;;;;;13.75;5.80;;;31.60;99.90;;;;;;5045345;28;20195;-76
2021/07/25 12:41:07;;;;;;;12.10;6.38;;;31.70;99.90;;;;;;5027762;28;20192;-77
2021/07/25 12:43:33;;;;;;;13.65;5.32;;;31.70;99.90;;;;;;5025933;28;20249;-77
2021/07/25 12:46:03;;;;;;;13.20;6.05;;;31.80;99.90;;;;;;5029026;28;20289;-75
2021/07/25 12:48:35;;;;;;;13.23;5.70;;;31.80;99.90;;;;;;5029155;28;20179;-77
2021/07/25 12:53:57;;;;;;;12.82;5.70;;;31.80;99.90;;;;;;5046484;28;20525;-76
2021/07/25 12:56:25;;;;;;;10.82;5.95;;;31.60;99.90;;;;;;5029464;28;20215;-75
2021/07/25 12:58:58;;;;;;;11.15;5.25;;;31.70;99.90;;;;;;5039843;28;20176;-76
2021/07/25 13:03:59;;;;;;;16.00;5.95;;;31.60;99.90;;;;;;5049659;28;20188;-76